createdAt,value
2019-03-17T00:02:03.428Z,0.50
2019-03-17T00:04:32.023Z,0.60
2019-03-17T00:07:00.535Z,0.80
2019-03-17T00:09:28.919Z,0.70
2019-03-17T00:11:57.294Z,0.80
2019-03-17T00:14:25.429Z,0.67
2019-03-17T00:16:53.555Z,0.97
2019-03-17T00:19:21.933Z,1.10
2019-03-17T00:21:50.053Z,1.10
2019-03-17T00:24:18.255Z,1.00
2019-03-17T00:26:46.373Z,1.00
2019-03-17T00:29:14.501Z,0.90
2019-03-17T00:31:42.609Z,1.23
2019-03-17T00:34:10.737Z,0.67
2019-03-17T00:36:38.849Z,0.87
2019-03-17T00:39:07.053Z,0.63
2019-03-17T00:41:35.169Z,0.80
2019-03-17T00:44:03.555Z,0.67
2019-03-17T00:46:31.663Z,0.53
2019-03-17T00:48:59.779Z,0.50
2019-03-17T00:51:27.905Z,0.50
2019-03-17T00:53:56.045Z,0.50
2019-03-17T00:56:24.401Z,0.50
2019-03-17T00:58:52.513Z,0.80
2019-03-17T01:01:20.617Z,0.60
2019-03-17T01:03:49.057Z,0.50
2019-03-17T01:06:17.439Z,0.60
2019-03-17T01:08:45.934Z,0.50
2019-03-17T01:11:14.673Z,0.60
2019-03-17T01:13:43.085Z,0.70
2019-03-17T01:16:11.503Z,1.00
2019-03-17T01:18:39.930Z,0.80
2019-03-17T01:21:08.341Z,0.80
2019-03-17T01:23:36.754Z,0.80
2019-03-17T01:26:05.415Z,0.70
2019-03-17T01:28:33.821Z,0.67
2019-03-17T01:31:02.241Z,0.80
2019-03-17T01:33:30.649Z,0.83
2019-03-17T01:35:59.070Z,0.60
2019-03-17T01:38:27.478Z,0.70
2019-03-17T01:40:55.899Z,0.43
2019-03-17T01:43:24.309Z,0.50
2019-03-17T01:45:52.729Z,0.80
2019-03-17T01:48:21.389Z,1.10
2019-03-17T01:50:49.809Z,1.10
2019-03-17T01:53:18.218Z,0.60
2019-03-17T01:55:46.890Z,0.70
2019-03-17T01:58:15.302Z,0.60
2019-03-17T02:00:43.799Z,0.80
2019-03-17T02:03:12.211Z,0.50
2019-03-17T02:05:40.865Z,0.80
2019-03-17T02:08:09.529Z,0.73
2019-03-17T02:10:37.945Z,0.60
2019-03-17T02:13:06.618Z,0.60
2019-03-17T02:15:35.035Z,0.60
2019-03-17T02:18:03.698Z,0.87
2019-03-17T02:20:32.341Z,0.50
2019-03-17T02:23:00.790Z,0.87
2019-03-17T02:25:29.217Z,0.70
2019-03-17T02:27:57.701Z,0.87
2019-03-17T02:30:26.126Z,0.63
2019-03-17T02:32:54.537Z,0.60
2019-03-17T02:35:37.985Z,0.60
2019-03-17T02:37:53.363Z,0.70
2019-03-17T02:40:22.031Z,0.50
2019-03-17T02:42:50.703Z,0.60
2019-03-17T02:45:19.138Z,0.60
2019-03-17T02:47:47.803Z,0.70
2019-03-17T02:50:16.482Z,0.75
2019-03-17T02:52:44.905Z,0.68
2019-03-17T02:55:13.569Z,0.50
2019-03-17T02:57:41.981Z,0.60
2019-03-17T03:00:11.604Z,0.60
2019-03-17T03:02:40.047Z,0.88
2019-03-17T03:05:09.162Z,0.70
2019-03-17T03:07:37.586Z,0.80
2019-03-17T03:10:07.043Z,0.70
2019-03-17T03:12:35.641Z,0.70
2019-03-17T03:15:06.053Z,0.67
2019-03-17T03:17:34.697Z,0.70
2019-03-17T03:20:04.666Z,0.70
2019-03-17T03:22:33.094Z,0.50
2019-03-17T03:25:01.521Z,0.80
2019-03-17T03:27:29.933Z,0.50
2019-03-17T03:29:58.614Z,1.00
2019-03-17T03:32:27.298Z,0.60
2019-03-17T03:34:55.842Z,0.60
2019-03-17T03:37:24.515Z,0.60
2019-03-17T03:39:52.932Z,0.55
2019-03-17T03:42:21.805Z,0.70
2019-03-17T03:44:50.495Z,0.70
2019-03-17T03:47:19.174Z,0.80
2019-03-17T03:49:47.594Z,0.82
2019-03-17T03:52:16.018Z,0.60
2019-03-17T03:54:44.429Z,0.90
2019-03-17T03:57:13.117Z,0.70
2019-03-17T03:59:41.509Z,0.50
2019-03-17T04:02:10.212Z,0.60
2019-03-17T04:04:38.946Z,0.68
2019-03-17T04:07:07.645Z,0.50
2019-03-17T04:09:36.098Z,0.80
2019-03-17T04:12:04.772Z,0.50
2019-03-17T04:14:33.173Z,0.47
2019-03-17T04:17:01.868Z,0.60
2019-03-17T04:19:30.577Z,0.95
2019-03-17T04:21:59.026Z,0.55
2019-03-17T04:24:27.429Z,0.60
2019-03-17T04:26:56.193Z,0.50
2019-03-17T04:29:24.602Z,0.60
2019-03-17T04:31:53.089Z,0.80
2019-03-17T04:34:21.514Z,0.42
2019-03-17T04:36:49.941Z,0.50
2019-03-17T04:39:18.382Z,0.80
2019-03-17T04:41:47.049Z,0.50
2019-03-17T04:44:20.799Z,0.50
2019-03-17T04:46:45.907Z,0.60
2019-03-17T04:49:14.567Z,0.50
2019-03-17T04:51:42.994Z,0.60
2019-03-17T04:54:11.642Z,0.47
2019-03-17T04:56:40.350Z,0.40
2019-03-17T04:59:08.756Z,0.57
2019-03-17T05:01:37.210Z,0.60
2019-03-17T05:04:05.626Z,0.60
2019-03-17T05:06:34.051Z,0.47
2019-03-17T05:09:02.454Z,0.50
2019-03-17T05:11:30.906Z,0.50
2019-03-17T05:13:59.577Z,0.50
2019-03-17T05:16:28.285Z,0.60
2019-03-17T05:18:56.725Z,0.50
2019-03-17T05:21:25.405Z,0.53
2019-03-17T05:23:53.877Z,0.40
2019-03-17T05:26:22.537Z,0.60
2019-03-17T05:28:51.210Z,0.40
2019-03-17T05:31:19.629Z,0.50
2019-03-17T05:33:48.202Z,0.40
2019-03-17T05:36:16.624Z,0.60
2019-03-17T05:38:45.096Z,0.50
2019-03-17T05:41:13.525Z,0.50
2019-03-17T05:43:41.966Z,0.40
2019-03-17T05:46:10.612Z,1.07
2019-03-17T05:48:39.278Z,0.40
2019-03-17T05:51:07.713Z,0.47
2019-03-17T05:53:36.373Z,0.50
2019-03-17T05:56:04.790Z,0.40
2019-03-17T05:58:33.204Z,0.50
2019-03-17T06:01:01.616Z,0.50
2019-03-17T06:03:30.066Z,0.50
2019-03-17T06:05:58.726Z,0.47
2019-03-17T06:08:27.146Z,0.50
2019-03-17T06:10:55.559Z,0.40
2019-03-17T06:13:24.221Z,0.50
2019-03-17T06:15:52.872Z,0.50
2019-03-17T06:18:21.299Z,0.50
2019-03-17T06:20:49.705Z,0.40
2019-03-17T06:23:18.353Z,0.60
2019-03-17T06:25:47.050Z,0.50
2019-03-17T06:28:15.518Z,0.70
2019-03-17T06:30:43.992Z,0.53
2019-03-17T06:33:12.421Z,0.50
2019-03-17T06:35:41.059Z,0.57
2019-03-17T06:38:09.810Z,0.50
2019-03-17T06:40:38.218Z,0.50
2019-03-17T06:43:06.678Z,0.57
2019-03-17T06:45:35.107Z,0.70
2019-03-17T06:48:03.742Z,0.60
2019-03-17T06:50:32.187Z,0.60
2019-03-17T06:53:00.637Z,0.47
2019-03-17T06:55:29.065Z,0.50
2019-03-17T06:57:57.481Z,0.70
2019-03-17T07:00:25.925Z,0.70
2019-03-17T07:02:54.345Z,0.70
2019-03-17T07:05:23.002Z,0.83
2019-03-17T07:07:51.410Z,0.63
2019-03-17T07:10:19.845Z,0.50
2019-03-17T07:12:48.426Z,0.60
2019-03-17T07:15:17.106Z,0.57
2019-03-17T07:17:45.757Z,0.60
2019-03-17T07:20:14.908Z,0.70
2019-03-17T07:22:43.321Z,0.50
2019-03-17T07:25:12.048Z,0.53
2019-03-17T07:27:40.498Z,0.80
2019-03-17T07:30:12.330Z,0.60
2019-03-17T07:32:40.729Z,0.60
2019-03-17T07:35:09.157Z,1.00
2019-03-17T07:37:37.817Z,0.70
2019-03-17T07:40:11.353Z,0.90
2019-03-17T07:42:39.768Z,0.70
2019-03-17T07:45:12.144Z,0.60
2019-03-17T07:47:40.585Z,0.67
2019-03-17T07:50:11.827Z,0.50
2019-03-17T07:52:40.228Z,0.63
2019-03-17T07:55:11.446Z,0.50
2019-03-17T07:57:39.872Z,0.50
2019-03-17T08:00:12.719Z,0.60
2019-03-17T08:02:41.121Z,0.60
2019-03-17T08:05:10.486Z,0.57
2019-03-17T08:07:39.130Z,0.50
2019-03-17T08:10:16.004Z,0.40
2019-03-17T08:12:44.404Z,1.00
2019-03-17T08:15:14.313Z,0.50
2019-03-17T08:17:42.973Z,0.50
2019-03-17T08:20:12.225Z,0.80
2019-03-17T08:22:40.873Z,0.60
2019-03-17T08:25:11.123Z,0.60
2019-03-17T08:27:39.524Z,0.70
2019-03-17T08:30:17.675Z,0.60
2019-03-17T08:32:46.061Z,0.90
2019-03-17T08:35:14.727Z,0.87
2019-03-17T08:37:43.157Z,0.70
2019-03-17T08:40:16.678Z,0.97
2019-03-17T08:42:45.410Z,0.80
2019-03-17T08:45:14.368Z,0.80
2019-03-17T08:47:43.032Z,0.70
2019-03-17T08:50:11.930Z,0.63
2019-03-17T08:52:40.138Z,0.77
2019-03-17T08:55:08.842Z,1.03
2019-03-17T08:57:36.974Z,0.77
2019-03-17T09:00:15.143Z,0.90
2019-03-17T09:02:43.269Z,0.67
2019-03-17T09:05:11.418Z,0.70
2019-03-17T09:07:39.557Z,0.70
2019-03-17T09:10:09.266Z,0.60
2019-03-17T09:12:37.395Z,0.90
2019-03-17T09:15:06.074Z,0.60
2019-03-17T09:17:34.210Z,0.60
2019-03-17T09:20:02.390Z,0.60
2019-03-17T09:22:31.428Z,1.07
2019-03-17T09:24:59.571Z,0.70
2019-03-17T09:27:27.702Z,0.60
2019-03-17T09:29:56.106Z,0.60
2019-03-17T09:32:24.271Z,0.60
2019-03-17T09:34:52.426Z,0.80
2019-03-17T09:37:20.569Z,0.90
2019-03-17T09:39:48.693Z,0.70
2019-03-17T09:42:16.869Z,0.70
2019-03-17T09:44:45.003Z,0.60
2019-03-17T09:47:13.153Z,0.90
2019-03-17T09:49:41.606Z,0.83
2019-03-17T09:52:09.758Z,0.70
2019-03-17T09:54:37.891Z,0.70
2019-03-17T09:57:06.097Z,0.70
2019-03-17T09:59:34.294Z,0.90
2019-03-17T10:02:03.563Z,0.93
2019-03-17T10:04:31.686Z,0.60
2019-03-17T10:06:59.836Z,0.70
2019-03-17T10:09:27.970Z,0.50
2019-03-17T10:11:56.139Z,0.77
2019-03-17T10:14:24.286Z,0.60
2019-03-17T10:16:52.502Z,0.63
2019-03-17T10:19:20.633Z,0.60
2019-03-17T10:21:48.768Z,0.53
2019-03-17T10:24:16.897Z,0.60
2019-03-17T10:26:45.106Z,0.70
2019-03-17T10:29:13.241Z,0.60
2019-03-17T10:31:41.479Z,0.60
2019-03-17T10:34:09.606Z,0.70
2019-03-17T10:36:38.050Z,0.70
2019-03-17T10:39:12.370Z,0.70
2019-03-17T10:41:36.189Z,0.80
2019-03-17T10:44:04.467Z,0.70
2019-03-17T10:46:32.975Z,0.70
2019-03-17T10:49:01.106Z,0.70
2019-03-17T10:51:29.266Z,0.60
2019-03-17T10:53:57.435Z,0.60
2019-03-17T10:56:25.601Z,0.67
2019-03-17T10:58:54.010Z,0.70
2019-03-17T11:01:22.177Z,0.50
2019-03-17T11:03:50.306Z,0.70
2019-03-17T11:06:18.463Z,0.80
2019-03-17T11:08:46.594Z,0.90
2019-03-17T11:11:14.747Z,0.70
2019-03-17T11:13:42.905Z,0.60
2019-03-17T11:16:11.047Z,0.70
2019-03-17T11:18:39.174Z,0.80
2019-03-17T11:21:07.566Z,1.00
2019-03-17T11:23:35.985Z,0.60
2019-03-17T11:26:04.109Z,0.80
2019-03-17T11:28:32.250Z,0.60
2019-03-17T11:31:00.683Z,0.70
2019-03-17T11:33:29.175Z,0.63
2019-03-17T11:35:57.326Z,0.73
2019-03-17T11:38:25.475Z,0.70
2019-03-17T11:40:53.655Z,0.70
2019-03-17T11:43:22.063Z,0.60
2019-03-17T11:45:50.200Z,1.27
2019-03-17T11:48:18.341Z,1.03
2019-03-17T11:50:46.722Z,0.70
2019-03-17T11:53:15.578Z,0.70
2019-03-17T11:55:43.719Z,0.70
2019-03-17T11:58:11.854Z,0.93
2019-03-17T12:00:39.990Z,0.80
2019-03-17T12:03:08.159Z,0.97
2019-03-17T12:05:36.580Z,0.60
2019-03-17T12:08:04.714Z,0.90
2019-03-17T12:10:32.845Z,0.90
2019-03-17T12:13:00.983Z,0.73
2019-03-17T12:15:32.707Z,0.87
2019-03-17T12:18:00.875Z,0.90
2019-03-17T12:20:28.998Z,1.00
2019-03-17T12:22:57.212Z,2.93
2019-03-17T12:25:25.603Z,2.07
2019-03-17T12:27:53.746Z,0.80
2019-03-17T12:30:22.680Z,1.73
2019-03-17T12:32:51.320Z,1.00
2019-03-17T12:35:19.524Z,0.97
2019-03-17T12:37:47.734Z,0.73
2019-03-17T12:40:16.287Z,0.80
2019-03-17T12:42:44.430Z,0.90
2019-03-17T12:45:12.830Z,1.10
2019-03-17T12:47:40.975Z,0.70
2019-03-17T12:50:10.480Z,0.80
2019-03-17T12:52:38.866Z,0.80
2019-03-17T12:55:07.575Z,1.13
2019-03-17T12:57:35.719Z,0.70
2019-03-17T13:00:22.455Z,1.00
2019-03-17T13:02:50.593Z,0.70
2019-03-17T13:05:18.723Z,0.70
2019-03-17T13:07:46.923Z,0.60
2019-03-17T13:10:16.583Z,0.67
2019-03-17T13:12:44.979Z,0.70
2019-03-17T13:15:13.545Z,0.73
2019-03-17T13:17:41.751Z,0.87
2019-03-17T13:20:11.129Z,0.80
2019-03-17T13:22:39.312Z,0.80
2019-03-17T13:25:08.212Z,1.00
2019-03-17T13:27:36.354Z,0.60
2019-03-17T13:30:06.158Z,1.20
2019-03-17T13:32:34.300Z,0.90
2019-03-17T13:35:02.508Z,0.87
2019-03-17T13:37:30.652Z,0.90
2019-03-17T13:39:58.804Z,0.80
2019-03-17T13:42:27.017Z,0.90
2019-03-17T13:44:55.142Z,0.90
2019-03-17T13:47:23.288Z,0.83
2019-03-17T13:49:51.414Z,0.90
2019-03-17T13:52:19.547Z,1.20
2019-03-17T13:54:47.694Z,1.43
2019-03-17T13:57:16.122Z,1.17
2019-03-17T13:59:44.286Z,0.87
2019-03-17T14:02:12.411Z,1.40
2019-03-17T14:04:40.556Z,1.30
2019-03-17T14:07:08.941Z,1.03
2019-03-17T14:09:37.349Z,0.93
2019-03-17T14:12:05.810Z,1.30
2019-03-17T14:14:34.035Z,1.10
2019-03-17T14:17:02.433Z,1.50
2019-03-17T14:19:30.570Z,1.37
2019-03-17T14:21:58.700Z,0.80
2019-03-17T14:24:26.837Z,1.20
2019-03-17T14:26:54.962Z,1.00
2019-03-17T14:29:23.110Z,1.10
2019-03-17T14:31:51.234Z,1.10
2019-03-17T14:34:19.438Z,1.03
2019-03-17T14:36:47.643Z,1.20
2019-03-17T14:39:15.779Z,0.90
2019-03-17T14:41:43.915Z,1.70
2019-03-17T14:44:12.111Z,1.43
2019-03-17T14:46:40.586Z,1.00
2019-03-17T14:49:08.731Z,1.50
2019-03-17T14:51:36.886Z,1.47
2019-03-17T14:54:05.124Z,1.50
2019-03-17T14:56:33.313Z,1.37
2019-03-17T14:59:01.711Z,1.30
2019-03-17T15:01:29.835Z,1.17
2019-03-17T15:03:58.003Z,1.27
2019-03-17T15:06:26.122Z,1.20
2019-03-17T15:08:54.262Z,1.10
2019-03-17T15:11:22.398Z,1.00
2019-03-17T15:13:50.537Z,1.20
2019-03-17T15:16:18.914Z,1.43
2019-03-17T15:18:47.143Z,1.00
2019-03-17T15:21:15.276Z,1.40
2019-03-17T15:23:43.415Z,0.90
2019-03-17T15:26:11.540Z,1.43
2019-03-17T15:28:39.942Z,1.07
2019-03-17T15:31:12.072Z,1.10
2019-03-17T15:33:37.964Z,1.27
2019-03-17T15:36:06.098Z,1.20
2019-03-17T15:38:34.246Z,1.03
2019-03-17T15:41:02.659Z,1.63
2019-03-17T15:43:30.798Z,1.53
2019-03-17T15:45:58.926Z,1.23
2019-03-17T15:48:27.318Z,1.50
2019-03-17T15:50:55.471Z,1.43
2019-03-17T15:53:23.625Z,1.30
2019-03-17T15:55:52.283Z,1.30
2019-03-17T15:58:20.717Z,1.40
2019-03-17T16:00:49.198Z,1.40
2019-03-17T16:03:17.644Z,1.70
2019-03-17T16:05:46.068Z,1.10
2019-03-17T16:08:14.781Z,1.60
2019-03-17T16:10:43.193Z,1.53
2019-03-17T16:13:11.602Z,1.23
2019-03-17T16:15:40.454Z,1.53
2019-03-17T16:18:08.914Z,0.90
2019-03-17T16:20:37.358Z,1.23
2019-03-17T16:23:05.831Z,0.93
2019-03-17T16:25:40.514Z,1.27
2019-03-17T16:28:08.917Z,1.47
2019-03-17T16:30:37.360Z,1.17
2019-03-17T16:33:05.756Z,1.50
2019-03-17T16:35:34.227Z,1.30
2019-03-17T16:38:02.656Z,1.27
2019-03-17T16:40:34.975Z,1.30
2019-03-17T16:43:03.867Z,1.40
2019-03-17T16:45:32.659Z,1.43
2019-03-17T16:48:01.062Z,1.40
2019-03-17T16:50:29.514Z,1.63
2019-03-17T16:52:58.207Z,1.10
2019-03-17T16:55:26.713Z,1.97
2019-03-17T16:57:55.370Z,2.43
2019-03-17T17:00:25.750Z,1.13
2019-03-17T17:02:54.338Z,1.00
2019-03-17T17:05:23.968Z,0.70
2019-03-17T17:07:52.484Z,0.97
2019-03-17T17:10:24.731Z,1.17
2019-03-17T17:12:53.213Z,0.70
2019-03-17T17:15:26.082Z,0.60
2019-03-17T17:17:54.794Z,0.60
2019-03-17T17:20:28.637Z,0.60
2019-03-17T17:22:57.045Z,0.50
2019-03-17T17:25:25.502Z,0.67
2019-03-17T17:27:53.911Z,0.40
2019-03-17T17:30:22.613Z,0.40
2019-03-17T17:32:51.062Z,0.43
2019-03-17T17:35:19.507Z,0.40
2019-03-17T17:37:48.183Z,0.40
2019-03-17T17:40:21.017Z,0.43
2019-03-17T17:42:49.443Z,0.50
2019-03-17T17:45:25.000Z,0.60
2019-03-17T17:47:53.410Z,0.50
2019-03-17T17:50:22.872Z,0.50
2019-03-17T17:52:51.285Z,0.40
2019-03-17T17:55:19.778Z,0.40
2019-03-17T17:57:48.199Z,0.70
2019-03-17T18:00:23.982Z,0.50
2019-03-17T18:02:52.438Z,0.40
2019-03-17T18:05:20.857Z,0.40
2019-03-17T18:07:49.539Z,0.40
2019-03-17T18:10:18.952Z,0.40
2019-03-17T18:12:47.618Z,0.40
2019-03-17T18:15:24.310Z,1.00
2019-03-17T18:17:52.793Z,0.40
2019-03-17T18:20:21.219Z,0.50
2019-03-17T18:22:49.954Z,0.50
2019-03-17T18:25:21.827Z,0.40
2019-03-17T18:27:50.303Z,0.50
2019-03-17T18:30:22.896Z,0.47
2019-03-17T18:32:51.556Z,0.50
2019-03-17T18:35:20.235Z,0.40
2019-03-17T18:37:50.900Z,0.50
2019-03-17T18:40:22.532Z,0.70
2019-03-17T18:42:51.129Z,0.45
2019-03-17T18:45:26.972Z,0.50
2019-03-17T18:47:57.471Z,0.40
2019-03-17T18:50:25.520Z,0.57
2019-03-17T18:52:54.239Z,0.40
2019-03-17T18:55:22.711Z,0.47
2019-03-17T18:57:51.126Z,0.60
2019-03-17T19:00:23.580Z,0.62
2019-03-17T19:02:52.017Z,0.73
2019-03-17T19:05:20.582Z,0.70
2019-03-17T19:07:49.297Z,0.57
2019-03-17T19:10:20.952Z,0.70
2019-03-17T19:12:49.494Z,0.73
2019-03-17T19:15:21.864Z,0.50
2019-03-17T19:17:50.782Z,0.60
2019-03-17T19:20:20.336Z,0.70
2019-03-17T19:22:48.844Z,0.75
2019-03-17T19:25:19.576Z,1.13
2019-03-17T19:27:48.053Z,0.70
2019-03-17T19:30:20.374Z,0.67
2019-03-17T19:32:48.862Z,0.70
2019-03-17T19:35:17.354Z,0.80
2019-03-17T19:37:45.790Z,0.60
2019-03-17T19:40:23.126Z,0.90
2019-03-17T19:42:58.532Z,0.70
2019-03-17T19:45:21.961Z,0.70
2019-03-17T19:47:50.382Z,0.50
2019-03-17T19:50:20.164Z,0.80
2019-03-17T19:52:48.573Z,0.77
2019-03-17T19:55:17.327Z,0.90
2019-03-17T19:57:45.801Z,1.10
2019-03-17T20:00:16.415Z,0.80
2019-03-17T20:02:47.364Z,0.72
2019-03-17T20:05:15.414Z,0.93
2019-03-17T20:07:43.866Z,0.80
2019-03-17T20:10:20.875Z,0.90
2019-03-17T20:12:49.587Z,0.82
2019-03-17T20:15:18.266Z,0.60
2019-03-17T20:17:46.996Z,0.60
2019-03-17T20:20:15.746Z,0.70
2019-03-17T20:22:44.255Z,0.60
2019-03-17T20:25:12.862Z,0.80
2019-03-17T20:27:41.361Z,0.80
2019-03-17T20:30:14.790Z,0.60
2019-03-17T20:32:43.465Z,0.60
2019-03-17T20:35:13.316Z,0.40
2019-03-17T20:37:41.934Z,0.60
2019-03-17T20:40:17.294Z,0.50
2019-03-17T20:42:46.045Z,0.57
2019-03-17T20:45:15.802Z,0.55
2019-03-17T20:47:45.022Z,0.60
2019-03-17T20:50:15.027Z,0.50
2019-03-17T20:52:43.446Z,0.63
2019-03-17T20:55:12.838Z,0.70
2019-03-17T20:57:41.479Z,0.60
2019-03-17T21:00:14.718Z,0.50
2019-03-17T21:02:43.275Z,0.57
2019-03-17T21:05:12.469Z,0.60
2019-03-17T21:07:41.257Z,0.75
2019-03-17T21:10:11.803Z,0.60
2019-03-17T21:12:40.277Z,0.70
2019-03-17T21:15:17.114Z,0.70
2019-03-17T21:17:45.820Z,0.70
2019-03-17T21:20:16.968Z,0.70
2019-03-17T21:22:47.248Z,0.57
2019-03-17T21:25:15.670Z,0.70
2019-03-17T21:27:44.093Z,0.93
2019-03-17T21:30:17.804Z,0.42
2019-03-17T21:32:46.559Z,0.60
2019-03-17T21:35:15.033Z,0.40
2019-03-17T21:37:43.478Z,0.50
2019-03-17T21:40:12.537Z,0.50
2019-03-17T21:42:40.949Z,0.57
2019-03-17T21:45:10.817Z,0.40
2019-03-17T21:47:39.290Z,0.40
2019-03-17T21:50:17.051Z,0.50
2019-03-17T21:52:45.724Z,0.40
2019-03-17T21:55:14.866Z,0.60
2019-03-17T21:57:43.297Z,0.45
2019-03-17T22:00:19.598Z,0.50
2019-03-17T22:02:48.195Z,0.62
2019-03-17T22:05:16.710Z,0.55
2019-03-17T22:07:50.047Z,0.40
2019-03-17T22:10:21.535Z,0.70
2019-03-17T22:12:50.279Z,0.50
2019-03-17T22:15:19.455Z,0.82
2019-03-17T22:17:48.119Z,0.50
2019-03-17T22:20:16.810Z,0.50
2019-03-17T22:22:45.522Z,0.40
2019-03-17T22:25:14.940Z,0.70
2019-03-17T22:27:43.425Z,0.85
2019-03-17T22:30:21.495Z,0.50
2019-03-17T22:32:49.938Z,0.40
2019-03-17T22:35:18.369Z,0.50
2019-03-17T22:37:46.782Z,0.50
2019-03-17T22:40:17.281Z,0.60
2019-03-17T22:42:45.705Z,0.40
2019-03-17T22:45:15.357Z,0.50
2019-03-17T22:47:44.113Z,0.50
2019-03-17T22:50:14.705Z,0.50
2019-03-17T22:52:43.423Z,0.50
2019-03-17T22:55:12.564Z,0.40
2019-03-17T22:57:41.010Z,0.50
2019-03-17T23:00:17.058Z,0.50
2019-03-17T23:02:45.485Z,0.40
2019-03-17T23:05:14.142Z,0.50
2019-03-17T23:07:42.564Z,0.40
2019-03-17T23:10:12.130Z,0.50
2019-03-17T23:12:40.549Z,0.50
2019-03-17T23:15:11.358Z,0.40
2019-03-17T23:17:39.790Z,0.50
2019-03-17T23:20:12.769Z,0.40
2019-03-17T23:22:41.445Z,0.40
2019-03-17T23:25:10.706Z,0.40
2019-03-17T23:27:39.374Z,0.40
2019-03-17T23:30:15.787Z,0.50
2019-03-17T23:32:44.214Z,0.40
2019-03-17T23:35:12.634Z,0.40
2019-03-17T23:37:41.057Z,0.40
2019-03-17T23:40:11.439Z,0.40
2019-03-17T23:42:39.861Z,0.40
2019-03-17T23:45:10.373Z,0.40
2019-03-17T23:47:39.037Z,0.40
2019-03-17T23:50:12.765Z,0.40
2019-03-17T23:52:41.263Z,0.35
2019-03-17T23:55:14.139Z,0.40
2019-03-17T23:57:42.621Z,0.30
